createdAt,value
2017-06-23T00:00:07.337Z,35.55
2017-06-23T00:02:34.012Z,35.47
2017-06-23T00:05:00.704Z,35.92
2017-06-23T00:07:27.385Z,33.25
2017-06-23T00:09:54.083Z,31.83
2017-06-23T00:12:20.752Z,34.42
2017-06-23T00:14:47.456Z,33.60
2017-06-23T00:17:14.124Z,35.53
2017-06-23T00:19:40.797Z,35.70
2017-06-23T00:22:07.468Z,35.95
2017-06-23T00:24:34.148Z,36.15
2017-06-23T00:27:00.844Z,33.75
2017-06-23T00:29:27.515Z,32.60
2017-06-23T00:31:54.208Z,31.20
2017-06-23T00:34:20.880Z,31.15
2017-06-23T00:36:47.583Z,34.03
2017-06-23T00:39:14.252Z,33.88
2017-06-23T00:41:40.956Z,32.80
2017-06-23T00:44:07.629Z,32.92
2017-06-23T00:46:34.336Z,34.75
2017-06-23T00:49:01.012Z,34.22
2017-06-23T00:51:27.684Z,32.58
2017-06-23T00:53:54.357Z,34.00
2017-06-23T00:56:21.030Z,32.08
2017-06-23T00:58:47.728Z,33.03
2017-06-23T01:01:14.410Z,32.33
2017-06-23T01:03:41.111Z,35.22
2017-06-23T01:06:07.779Z,31.00
2017-06-23T01:08:34.475Z,32.38
2017-06-23T01:11:01.148Z,32.92
2017-06-23T01:13:27.850Z,32.97
2017-06-23T01:15:54.520Z,33.83
2017-06-23T01:18:21.222Z,32.95
2017-06-23T01:20:47.897Z,33.88
2017-06-23T01:23:14.573Z,34.75
2017-06-23T01:25:41.244Z,31.92
2017-06-23T01:28:07.911Z,28.45
2017-06-23T01:30:34.610Z,31.90
2017-06-23T01:33:01.281Z,33.67
2017-06-23T01:35:27.980Z,34.00
2017-06-23T01:37:54.656Z,36.13
2017-06-23T01:40:21.355Z,32.55
2017-06-23T01:42:48.040Z,31.80
2017-06-23T01:45:14.749Z,31.48
2017-06-23T01:47:41.424Z,33.05
2017-06-23T01:50:08.105Z,33.67
2017-06-23T01:52:34.784Z,31.52
2017-06-23T01:55:01.456Z,30.65
2017-06-23T01:57:28.128Z,29.05
2017-06-23T01:59:54.800Z,30.83
2017-06-23T02:02:21.496Z,29.67
2017-06-23T02:04:48.168Z,30.15
2017-06-23T02:07:14.878Z,29.63
2017-06-23T02:09:41.553Z,31.23
2017-06-23T02:12:08.255Z,29.63
2017-06-23T02:14:34.928Z,29.25
2017-06-23T02:17:01.633Z,31.37
2017-06-23T02:19:28.311Z,30.77
2017-06-23T02:21:55.017Z,31.95
2017-06-23T02:24:21.692Z,32.08
2017-06-23T02:26:48.368Z,31.00
2017-06-23T02:31:36.004Z,31.42
2017-06-23T02:34:02.680Z,30.80
2017-06-23T02:36:29.354Z,29.67
2017-06-23T02:38:56.056Z,29.45
2017-06-23T02:41:22.731Z,30.20
2017-06-23T02:43:49.431Z,28.98
2017-06-23T02:46:16.112Z,34.10
2017-06-23T02:48:42.832Z,30.80
2017-06-23T02:51:09.513Z,27.98
2017-06-23T02:53:36.196Z,29.15
2017-06-23T02:56:02.872Z,27.40
2017-06-23T02:58:29.552Z,28.50
2017-06-23T03:00:56.240Z,31.05
2017-06-23T03:03:22.924Z,28.95
2017-06-23T03:05:49.634Z,28.85
2017-06-23T03:08:16.311Z,26.48
2017-06-23T03:10:43.020Z,28.12
2017-06-23T03:13:15.600Z,27.05
2017-06-23T03:15:42.306Z,27.13
2017-06-23T03:18:08.982Z,25.85
2017-06-23T03:20:35.660Z,25.52
2017-06-23T03:23:02.344Z,24.85
2017-06-23T03:25:29.021Z,25.37
2017-06-23T03:27:55.696Z,25.70
2017-06-23T03:30:22.376Z,24.60
2017-06-23T03:32:49.058Z,24.25
2017-06-23T03:35:15.743Z,21.62
2017-06-23T03:37:42.448Z,23.25
2017-06-23T03:40:09.133Z,21.70
2017-06-23T03:42:35.836Z,21.73
2017-06-23T03:45:02.514Z,19.30
2017-06-23T03:47:29.242Z,21.70
2017-06-23T03:49:55.920Z,22.33
2017-06-23T03:52:22.608Z,23.30
2017-06-23T03:54:49.282Z,23.52
2017-06-23T03:57:15.985Z,23.80
2017-06-23T03:59:42.668Z,25.20
2017-06-23T04:02:09.362Z,24.40
2017-06-23T04:04:36.063Z,24.67
2017-06-23T04:07:02.740Z,24.35
2017-06-23T04:09:29.440Z,24.23
2017-06-23T04:11:56.123Z,25.90
2017-06-23T04:14:22.830Z,25.30
2017-06-23T04:16:49.503Z,24.65
2017-06-23T04:19:16.208Z,25.45
2017-06-23T04:21:42.893Z,25.10
2017-06-23T04:24:09.572Z,26.58
2017-06-23T04:26:36.269Z,24.12
2017-06-23T04:29:02.944Z,27.48
2017-06-23T04:31:29.643Z,27.98
2017-06-23T04:33:56.315Z,28.02
2017-06-23T04:36:22.990Z,28.12
2017-06-23T04:38:49.672Z,27.70
2017-06-23T04:41:16.352Z,29.42
2017-06-23T04:43:43.035Z,30.37
2017-06-23T04:46:09.743Z,28.52
2017-06-23T04:48:36.424Z,29.27
2017-06-23T04:51:03.140Z,26.75
2017-06-23T04:53:29.821Z,26.45
2017-06-23T04:55:56.524Z,26.00
2017-06-23T04:58:23.230Z,25.12
2017-06-23T05:00:49.925Z,24.45
2017-06-23T05:03:16.604Z,23.83
2017-06-23T05:05:43.282Z,24.33
2017-06-23T05:08:09.959Z,25.35
2017-06-23T05:10:36.637Z,23.62
2017-06-23T05:13:03.319Z,23.40
2017-06-23T05:15:30.000Z,23.40
2017-06-23T05:17:56.672Z,24.10
2017-06-23T05:20:23.351Z,23.77
2017-06-23T05:22:50.066Z,23.95
2017-06-23T05:25:16.739Z,22.83
2017-06-23T05:27:43.415Z,23.45
2017-06-23T05:30:10.104Z,23.05
2017-06-23T05:32:36.784Z,21.35
2017-06-23T05:35:03.492Z,22.85
2017-06-23T05:37:30.168Z,20.83
2017-06-23T05:39:56.844Z,21.57
2017-06-23T05:42:23.524Z,20.90
2017-06-23T05:44:51.993Z,19.47
2017-06-23T05:47:18.666Z,19.40
2017-06-23T05:49:45.335Z,18.50
2017-06-23T05:52:12.017Z,18.93
2017-06-23T05:54:38.689Z,20.00
2017-06-23T05:57:05.360Z,18.40
2017-06-23T05:59:32.035Z,17.23
2017-06-23T06:01:58.748Z,17.37
2017-06-23T06:04:25.437Z,16.70
2017-06-23T06:06:52.136Z,18.00
2017-06-23T06:09:18.814Z,16.80
2017-06-23T06:11:45.520Z,16.87
2017-06-23T06:14:12.194Z,17.80
2017-06-23T06:16:38.896Z,16.77
2017-06-23T06:19:05.581Z,17.30
2017-06-23T06:21:32.283Z,17.20
2017-06-23T06:23:58.968Z,15.77
2017-06-23T06:26:25.673Z,14.40
2017-06-23T06:28:52.347Z,15.47
2017-06-23T06:31:19.020Z,14.10
2017-06-23T06:33:45.695Z,15.47
2017-06-23T06:36:12.369Z,16.43
2017-06-23T06:38:39.069Z,14.73
2017-06-23T06:41:05.741Z,16.00
2017-06-23T06:43:32.440Z,16.43
2017-06-23T06:45:59.124Z,16.37
2017-06-23T06:48:25.828Z,15.57
2017-06-23T06:50:52.512Z,15.90
2017-06-23T06:53:19.208Z,15.40
2017-06-23T06:55:45.884Z,15.87
2017-06-23T06:58:12.579Z,15.50
2017-06-23T07:00:39.264Z,14.67
2017-06-23T07:03:05.968Z,15.60
2017-06-23T07:05:32.653Z,14.50
2017-06-23T07:07:59.334Z,15.23
2017-06-23T07:10:26.016Z,14.70
2017-06-23T07:12:52.701Z,15.23
2017-06-23T07:15:19.409Z,15.13
2017-06-23T07:17:46.096Z,15.23
2017-06-23T07:20:12.797Z,14.50
2017-06-23T07:22:39.475Z,14.40
2017-06-23T07:25:06.181Z,15.43
2017-06-23T07:27:32.868Z,16.23
2017-06-23T07:29:59.965Z,14.37
2017-06-23T07:32:26.636Z,13.97
2017-06-23T07:34:53.348Z,14.00
2017-06-23T07:37:20.020Z,12.70
2017-06-23T07:39:46.696Z,11.67
2017-06-23T07:42:13.368Z,12.10
2017-06-23T07:44:40.048Z,13.30
2017-06-23T07:47:06.747Z,12.00
2017-06-23T07:49:33.423Z,12.63
2017-06-23T07:52:00.130Z,12.60
2017-06-23T07:54:26.808Z,13.37
2017-06-23T07:56:53.509Z,12.90
2017-06-23T07:59:20.185Z,12.20
2017-06-23T08:01:46.881Z,14.00
2017-06-23T08:04:13.559Z,12.10
2017-06-23T08:06:40.265Z,11.60
2017-06-23T08:09:06.940Z,11.23
2017-06-23T08:11:33.624Z,11.70
2017-06-23T08:14:00.300Z,10.93
2017-06-23T08:16:26.972Z,11.63
2017-06-23T08:18:53.649Z,11.53
2017-06-23T08:21:20.334Z,12.67
2017-06-23T08:23:47.036Z,12.70
2017-06-23T08:26:13.715Z,13.20
2017-06-23T08:28:40.412Z,12.00
2017-06-23T08:31:07.093Z,12.10
2017-06-23T08:33:33.788Z,13.97
2017-06-23T08:36:00.469Z,16.13
2017-06-23T08:38:27.148Z,18.60
2017-06-23T08:40:53.829Z,19.60
2017-06-23T08:43:20.513Z,20.13
2017-06-23T08:45:47.196Z,19.83
2017-06-23T08:48:13.869Z,18.10
2017-06-23T08:50:40.572Z,17.30
2017-06-23T08:53:07.239Z,16.47
2017-06-23T08:55:33.941Z,17.00
2017-06-23T08:58:00.613Z,16.73
2017-06-23T09:00:27.284Z,17.20
2017-06-23T09:02:53.955Z,18.10
2017-06-23T09:05:20.634Z,18.80
2017-06-23T09:07:47.300Z,19.20
2017-06-23T09:10:13.976Z,18.67
2017-06-23T09:12:40.661Z,17.07
2017-06-23T09:15:07.333Z,18.40
2017-06-23T09:17:34.013Z,17.20
2017-06-23T09:20:00.697Z,16.67
2017-06-23T09:22:27.399Z,15.63
2017-06-23T09:24:54.075Z,14.70
2017-06-23T09:27:20.797Z,15.10
2017-06-23T09:29:47.472Z,13.53
2017-06-23T09:32:14.172Z,14.70
2017-06-23T09:34:40.844Z,14.60
2017-06-23T09:37:07.517Z,13.33
2017-06-23T09:39:34.196Z,12.60
2017-06-23T09:42:00.888Z,15.20
2017-06-23T09:44:27.576Z,14.13
2017-06-23T09:46:54.245Z,15.40
2017-06-23T09:49:20.920Z,15.77
2017-06-23T09:51:47.604Z,15.03
2017-06-23T09:54:14.308Z,15.93
2017-06-23T09:56:40.986Z,15.33
2017-06-23T09:59:07.684Z,13.80
2017-06-23T10:01:34.356Z,13.80
2017-06-23T10:04:01.032Z,12.40
2017-06-23T10:06:27.699Z,12.23
2017-06-23T10:08:54.377Z,11.90
2017-06-23T10:11:21.072Z,12.30
2017-06-23T10:13:47.747Z,12.67
2017-06-23T10:16:14.419Z,13.03
2017-06-23T10:18:41.088Z,13.07
2017-06-23T10:21:07.790Z,11.20
2017-06-23T10:23:34.490Z,12.70
2017-06-23T10:26:01.164Z,11.53
2017-06-23T10:28:27.837Z,10.53
2017-06-23T10:30:55.024Z,11.80
2017-06-23T10:33:21.758Z,11.53
2017-06-23T10:35:48.438Z,11.80
2017-06-23T10:38:15.116Z,11.30
2017-06-23T10:40:41.808Z,11.23
2017-06-23T10:43:08.524Z,11.73
2017-06-23T10:45:35.215Z,12.30
2017-06-23T10:48:01.902Z,11.00
2017-06-23T10:50:28.568Z,12.30
2017-06-23T10:52:55.255Z,12.67
2017-06-23T10:55:21.936Z,15.17
2017-06-23T10:57:48.609Z,14.50
2017-06-23T11:00:15.284Z,15.63
2017-06-23T11:02:41.956Z,14.50
2017-06-23T11:05:08.644Z,15.57
2017-06-23T11:07:35.328Z,15.60
2017-06-23T11:10:02.024Z,16.53
2017-06-23T11:12:28.701Z,18.67
2017-06-23T11:14:55.380Z,17.53
2017-06-23T11:17:22.055Z,17.13
2017-06-23T11:19:48.740Z,16.00
2017-06-23T11:22:15.416Z,13.77
2017-06-23T11:24:42.094Z,13.70
2017-06-23T11:27:08.765Z,13.27
2017-06-23T11:29:35.436Z,13.33
2017-06-23T11:32:02.128Z,11.50
2017-06-23T11:34:31.632Z,11.30
2017-06-23T11:36:58.345Z,9.80
2017-06-23T11:39:25.025Z,10.57
2017-06-23T11:41:51.700Z,9.93
2017-06-23T11:44:18.388Z,8.47
2017-06-23T11:46:45.073Z,9.27
2017-06-23T11:49:11.775Z,9.57
2017-06-23T11:51:38.444Z,9.20
2017-06-23T11:54:05.136Z,9.43
2017-06-23T11:56:31.811Z,8.00
2017-06-23T11:58:58.505Z,8.50
2017-06-23T12:01:25.176Z,10.27
2017-06-23T12:03:51.872Z,8.73
2017-06-23T12:06:18.549Z,9.23
2017-06-23T12:08:45.260Z,10.23
2017-06-23T12:11:11.929Z,9.67
2017-06-23T12:13:38.597Z,8.40
2017-06-23T12:16:05.285Z,9.47
2017-06-23T12:18:31.955Z,8.87
2017-06-23T12:20:58.657Z,8.40
2017-06-23T12:23:25.332Z,7.37
2017-06-23T12:25:52.028Z,7.33
2017-06-23T12:28:18.691Z,8.00
2017-06-23T12:30:45.400Z,7.20
2017-06-23T12:33:12.068Z,6.40
2017-06-23T12:35:38.731Z,7.33
2017-06-23T12:38:05.409Z,6.90
2017-06-23T12:40:32.072Z,7.33
2017-06-23T12:42:58.746Z,7.30
2017-06-23T12:45:25.412Z,8.00
2017-06-23T12:47:52.108Z,7.50
2017-06-23T12:50:18.783Z,7.60
2017-06-23T12:52:45.474Z,7.67
2017-06-23T12:55:12.144Z,6.90
2017-06-23T12:57:38.843Z,8.53
2017-06-23T13:00:05.517Z,9.00
2017-06-23T13:02:32.216Z,9.37
2017-06-23T13:04:58.896Z,9.03
2017-06-23T13:07:25.599Z,8.97
2017-06-23T13:09:52.273Z,8.40
2017-06-23T13:12:18.939Z,8.10
2017-06-23T13:14:45.600Z,8.93
2017-06-23T13:17:12.295Z,9.10
2017-06-23T13:19:38.968Z,8.63
2017-06-23T13:22:05.643Z,8.33
2017-06-23T13:24:32.316Z,7.37
2017-06-23T13:26:58.989Z,7.70
2017-06-23T13:29:25.668Z,7.47
2017-06-23T13:31:52.335Z,8.00
2017-06-23T13:34:19.040Z,7.40
2017-06-23T13:36:45.716Z,7.23
2017-06-23T13:39:12.421Z,7.40
2017-06-23T13:41:39.092Z,7.47
2017-06-23T13:44:05.784Z,6.80
2017-06-23T13:46:32.449Z,7.37
2017-06-23T13:48:59.149Z,6.87
2017-06-23T13:51:25.816Z,7.13
2017-06-23T13:53:52.509Z,6.67
2017-06-23T13:56:19.176Z,6.60
2017-06-23T13:58:45.844Z,7.10
2017-06-23T14:01:12.509Z,7.30
2017-06-23T14:03:39.186Z,7.10
2017-06-23T14:06:05.845Z,7.00
2017-06-23T14:08:32.514Z,6.90
2017-06-23T14:10:59.205Z,7.20
2017-06-23T14:13:25.883Z,6.53
2017-06-23T14:15:52.580Z,8.07
2017-06-23T14:18:19.256Z,6.70
2017-06-23T14:20:45.942Z,7.50
2017-06-23T14:23:12.622Z,7.50
2017-06-23T14:25:39.312Z,8.47
2017-06-23T14:28:05.976Z,7.50
2017-06-23T14:30:32.669Z,7.80
2017-06-23T14:32:59.353Z,7.80
2017-06-23T14:35:26.021Z,8.70
2017-06-23T14:37:52.691Z,8.67
2017-06-23T14:40:19.358Z,8.30
2017-06-23T14:42:46.060Z,9.20
2017-06-23T14:45:12.728Z,8.20
2017-06-23T14:47:39.397Z,7.83
2017-06-23T14:50:06.064Z,8.93
2017-06-23T14:52:32.747Z,9.10
2017-06-23T14:54:59.422Z,8.57
2017-06-23T14:57:26.103Z,9.00
2017-06-23T14:59:52.767Z,8.70
2017-06-23T15:02:19.459Z,8.90
2017-06-23T15:04:46.132Z,8.73
2017-06-23T15:07:12.844Z,9.57
2017-06-23T15:09:39.515Z,9.30
2017-06-23T15:12:06.180Z,8.97
2017-06-23T15:14:32.859Z,8.40
2017-06-23T15:16:59.521Z,8.80
2017-06-23T15:19:26.198Z,8.90
2017-06-23T15:21:52.875Z,8.77
2017-06-23T15:24:19.540Z,9.10
2017-06-23T15:26:46.212Z,8.77
2017-06-23T15:29:12.908Z,9.70
2017-06-23T15:31:39.586Z,9.40
2017-06-23T15:34:06.296Z,8.43
2017-06-23T15:36:32.961Z,9.17
2017-06-23T15:38:59.656Z,8.63
2017-06-23T15:41:26.329Z,9.40
2017-06-23T15:43:53.007Z,9.27
2017-06-23T15:46:19.674Z,8.83
2017-06-23T15:48:46.351Z,9.67
2017-06-23T15:51:13.021Z,9.20
2017-06-23T15:53:39.696Z,9.13
2017-06-23T15:56:06.371Z,8.40
2017-06-23T15:58:33.045Z,9.37
2017-06-23T16:00:59.730Z,11.27
2017-06-23T16:03:26.410Z,11.20
2017-06-23T16:05:53.107Z,10.67
2017-06-23T16:08:19.782Z,10.90
2017-06-23T16:10:46.505Z,11.77
2017-06-23T16:13:13.176Z,11.60
2017-06-23T16:15:39.867Z,12.83
2017-06-23T16:18:06.554Z,12.50
2017-06-23T16:20:33.231Z,11.60
2017-06-23T16:22:59.913Z,11.80
2017-06-23T16:25:26.588Z,14.90
2017-06-23T16:27:53.265Z,15.70
2017-06-23T16:30:19.936Z,16.60
2017-06-23T16:32:46.609Z,16.20
2017-06-23T16:35:13.290Z,16.10
2017-06-23T16:37:39.972Z,15.57
2017-06-23T16:40:06.649Z,16.17
2017-06-23T16:42:33.352Z,15.03
2017-06-23T16:45:00.041Z,14.80
2017-06-23T16:47:26.712Z,14.30
2017-06-23T16:49:53.388Z,14.60
2017-06-23T16:52:20.061Z,14.23
2017-06-23T16:54:46.741Z,13.93
2017-06-23T16:57:13.416Z,12.50
2017-06-23T16:59:40.104Z,13.10
2017-06-23T17:02:06.785Z,14.00
2017-06-23T17:04:33.460Z,12.47
2017-06-23T17:07:00.133Z,11.40
2017-06-23T17:09:26.808Z,11.70
2017-06-23T17:11:53.486Z,11.70
2017-06-23T17:14:20.164Z,11.47
2017-06-23T17:16:46.846Z,12.17
2017-06-23T17:19:13.522Z,12.03
2017-06-23T17:21:40.193Z,11.30
2017-06-23T17:24:06.868Z,12.07
2017-06-23T17:26:33.568Z,11.70
2017-06-23T17:29:00.248Z,11.13
2017-06-23T17:31:26.944Z,12.60
2017-06-23T17:33:53.852Z,11.87
2017-06-23T17:36:20.553Z,11.23
2017-06-23T17:38:47.228Z,11.93
2017-06-23T17:41:13.924Z,11.07
2017-06-23T17:43:40.600Z,11.30
2017-06-23T17:46:07.304Z,11.40
2017-06-23T17:48:33.972Z,12.00
2017-06-23T17:51:00.644Z,12.03
2017-06-23T17:53:27.321Z,12.60
2017-06-23T17:55:54.001Z,11.93
2017-06-23T17:58:20.708Z,13.33
2017-06-23T18:00:47.405Z,13.17
2017-06-23T18:03:14.105Z,13.03
2017-06-23T18:05:40.784Z,13.10
2017-06-23T18:08:07.492Z,12.80
2017-06-23T18:10:34.160Z,12.97
2017-06-23T18:13:00.856Z,12.07
2017-06-23T18:15:27.529Z,12.73
2017-06-23T18:17:54.233Z,12.57
2017-06-23T18:20:20.904Z,12.53
2017-06-23T18:22:47.572Z,12.60
2017-06-23T18:25:14.252Z,11.43
2017-06-23T18:27:40.928Z,12.63
2017-06-23T18:30:07.627Z,12.37
2017-06-23T18:32:34.310Z,11.50
2017-06-23T18:35:01.015Z,12.13
2017-06-23T18:37:27.708Z,11.93
2017-06-23T18:39:54.419Z,10.57
2017-06-23T18:42:21.096Z,10.73
2017-06-23T18:44:47.816Z,10.43
2017-06-23T18:47:14.516Z,10.90
2017-06-23T18:49:41.213Z,10.33
2017-06-23T18:52:07.893Z,11.07
2017-06-23T18:54:34.573Z,10.47
2017-06-23T18:57:01.256Z,9.90
2017-06-23T18:59:27.933Z,10.20
2017-06-23T19:01:54.633Z,10.33
2017-06-23T19:04:21.325Z,11.00
2017-06-23T19:06:48.020Z,10.67
2017-06-23T19:09:14.693Z,10.30
2017-06-23T19:11:41.396Z,10.17
2017-06-23T19:14:08.082Z,11.13
2017-06-23T19:16:34.792Z,11.77
2017-06-23T19:19:01.467Z,10.80
2017-06-23T19:21:28.144Z,11.10
2017-06-23T19:23:54.825Z,10.57
2017-06-23T19:26:21.501Z,10.97
2017-06-23T19:28:48.172Z,10.53
2017-06-23T19:31:14.843Z,9.50
2017-06-23T19:33:41.535Z,8.67
2017-06-23T19:36:08.201Z,9.00
2017-06-23T19:38:34.888Z,8.17
2017-06-23T19:41:01.555Z,7.37
2017-06-23T19:43:28.248Z,7.63
2017-06-23T19:45:54.915Z,6.90
2017-06-23T19:48:21.607Z,7.23
2017-06-23T19:50:48.272Z,7.37
2017-06-23T19:53:15.019Z,6.97
2017-06-23T19:55:41.700Z,8.03
2017-06-23T19:58:08.384Z,10.40
2017-06-23T20:00:35.064Z,11.70
2017-06-23T20:03:01.736Z,11.80
2017-06-23T20:05:28.416Z,13.37
2017-06-23T20:07:55.101Z,14.90
2017-06-23T20:10:21.809Z,15.00
2017-06-23T20:12:48.488Z,16.17
2017-06-23T20:15:15.192Z,16.00
2017-06-23T20:17:41.868Z,16.57
2017-06-23T20:20:08.575Z,18.42
2017-06-23T20:22:35.263Z,17.70
2017-06-23T20:25:01.976Z,17.52
2017-06-23T20:27:28.665Z,16.75
2017-06-23T20:29:55.385Z,18.63
2017-06-23T20:32:22.072Z,19.00
2017-06-23T20:34:48.761Z,18.45
2017-06-23T20:37:15.447Z,17.92
2017-06-23T20:39:42.141Z,18.55
2017-06-23T20:42:08.833Z,19.48
2017-06-23T20:44:35.524Z,17.52
2017-06-23T20:47:02.228Z,17.95
2017-06-23T20:49:28.929Z,16.77
2017-06-23T20:51:55.640Z,17.25
2017-06-23T20:54:22.352Z,15.52
2017-06-23T20:56:49.071Z,16.90
2017-06-23T20:59:15.759Z,15.90
2017-06-23T21:01:42.476Z,15.93
2017-06-23T21:04:09.162Z,16.90
2017-06-23T21:06:35.873Z,15.60
2017-06-23T21:09:02.553Z,16.10
2017-06-23T21:11:29.237Z,16.50
2017-06-23T21:13:55.917Z,15.73
2017-06-23T21:16:22.600Z,15.10
2017-06-23T21:18:49.279Z,15.60
2017-06-23T21:21:15.963Z,13.65
2017-06-23T21:23:42.647Z,12.70
2017-06-23T21:26:09.328Z,13.05
2017-06-23T21:28:36.018Z,11.82
2017-06-23T21:31:02.703Z,11.20
2017-06-23T21:33:29.408Z,10.25
2017-06-23T21:35:56.093Z,11.00
2017-06-23T21:38:22.774Z,9.55
2017-06-23T21:40:55.256Z,9.88
2017-06-23T21:43:21.939Z,9.90
2017-06-23T21:45:48.628Z,8.25
2017-06-23T21:48:15.308Z,9.00
2017-06-23T21:50:41.983Z,8.65
2017-06-23T21:53:08.659Z,8.30
2017-06-23T21:55:35.341Z,8.70
2017-06-23T21:58:02.017Z,8.35
2017-06-23T22:00:28.715Z,8.18
2017-06-23T22:02:55.392Z,8.07
2017-06-23T22:05:22.072Z,7.85
2017-06-23T22:07:48.736Z,7.85
2017-06-23T22:10:15.436Z,8.23
2017-06-23T22:12:42.111Z,8.65
2017-06-23T22:15:08.778Z,8.15
2017-06-23T22:17:35.444Z,7.80
2017-06-23T22:20:02.119Z,7.85
2017-06-23T22:22:28.792Z,7.75
2017-06-23T22:24:55.477Z,7.82
2017-06-23T22:27:22.168Z,7.85
2017-06-23T22:29:48.847Z,8.82
2017-06-23T22:32:15.529Z,8.95
2017-06-23T22:34:42.203Z,8.32
2017-06-23T22:37:08.895Z,8.95
2017-06-23T22:39:35.580Z,8.35
2017-06-23T22:42:02.276Z,8.13
2017-06-23T22:44:28.947Z,8.27
2017-06-23T22:46:55.623Z,8.05
2017-06-23T22:49:22.302Z,8.40
2017-06-23T22:51:48.973Z,8.48
2017-06-23T22:54:15.644Z,8.35
2017-06-23T22:56:42.318Z,8.35
2017-06-23T22:59:09.020Z,8.13
2017-06-23T23:01:35.698Z,7.87
2017-06-23T23:04:02.399Z,8.60
2017-06-23T23:06:29.076Z,8.63
2017-06-23T23:08:55.807Z,8.35
2017-06-23T23:11:22.480Z,8.77
2017-06-23T23:13:49.187Z,9.32
2017-06-23T23:16:15.857Z,9.65
2017-06-23T23:18:42.529Z,9.02
2017-06-23T23:21:09.205Z,8.98
2017-06-23T23:23:35.920Z,9.40
2017-06-23T23:26:02.625Z,10.25
2017-06-23T23:28:29.309Z,9.48
2017-06-23T23:30:56.013Z,10.20
2017-06-23T23:33:22.688Z,9.07
2017-06-23T23:35:49.393Z,9.82
2017-06-23T23:38:16.072Z,10.45
2017-06-23T23:40:42.774Z,10.00
2017-06-23T23:43:09.451Z,10.93
2017-06-23T23:45:36.136Z,11.43
2017-06-23T23:48:02.820Z,9.80
2017-06-23T23:50:29.504Z,10.77
2017-06-23T23:52:56.181Z,12.07
2017-06-23T23:55:22.884Z,10.60
2017-06-23T23:57:49.596Z,10.45
